sensor_id;sensor_type;location;lat;lon;timestamp;temperature;humidity
45735;DHT22;31446;49.632;8.328;2022-07-29T06:15:06;23.60;76.50
45735;DHT22;31446;49.632;8.328;2022-07-29T06:30:07;22.40;79.40
45735;DHT22;31446;49.632;8.328;2022-07-29T06:45:08;22.20;80.20
45735;DHT22;31446;49.632;8.328;2022-07-29T07:00:09;22.70;80.00
45735;DHT22;31446;49.632;8.328;2022-07-29T07:15:10;23.60;77.60
45735;DHT22;31446;49.632;8.328;2022-07-29T07:30:11;23.50;78.80
45735;DHT22;31446;49.632;8.328;2022-07-29T07:45:12;23.70;82.10
45735;DHT22;31446;49.632;8.328;2022-07-29T08:00:14;23.70;84.40
45735;DHT22;31446;49.632;8.328;2022-07-29T08:15:15;24.50;82.40
45735;DHT22;31446;49.632;8.328;2022-07-29T08:30:15;25.70;83.10
45735;DHT22;31446;49.632;8.328;2022-07-29T08:45:16;25.50;81.80
45735;DHT22;31446;49.632;8.328;2022-07-29T09:00:18;26.60;84.10
45735;DHT22;31446;49.632;8.328;2022-07-29T09:15:18;26.50;84.60
45735;DHT22;31446;49.632;8.328;2022-07-29T09:30:19;26.30;83.30
45735;DHT22;31446;49.632;8.328;2022-07-29T09:45:33;27.60;81.50
45735;DHT22;31446;49.632;8.328;2022-07-29T10:00:42;27.80;81.20
45735;DHT22;31446;49.632;8.328;2022-07-29T10:15:43;27.70;81.20
45735;DHT22;31446;49.632;8.328;2022-07-29T10:30:47;26.90;83.20
45735;DHT22;31446;49.632;8.328;2022-07-29T10:45:56;28.20;81.40
45735;DHT22;31446;49.632;8.328;2022-07-29T11:00:57;28.70;81.50
45735;DHT22;31446;49.632;8.328;2022-07-29T11:15:58;30.40;76.80
45735;DHT22;31446;49.632;8.328;2022-07-29T11:30:59;30.40;77.40
45735;DHT22;31446;49.632;8.328;2022-07-29T11:46:00;30.30;77.00
45735;DHT22;31446;49.632;8.328;2022-07-29T12:01:01;31.80;74.90
45735;DHT22;31446;49.632;8.328;2022-07-29T12:16:04;31.50;73.90
45735;DHT22;31446;49.632;8.328;2022-07-29T12:31:05;30.70;74.80
45735;DHT22;31446;49.632;8.328;2022-07-29T12:46:14;30.30;73.80
45735;DHT22;31446;49.632;8.328;2022-07-29T13:01:16;31.90;71.80
45735;DHT22;31446;49.632;8.328;2022-07-29T13:16:18;32.40;72.00
45735;DHT22;31446;49.632;8.328;2022-07-29T13:31:19;30.70;71.20
45735;DHT22;31446;49.632;8.328;2022-07-29T13:46:19;30.40;72.60
45735;DHT22;31446;49.632;8.328;2022-07-29T14:01:20;30.50;72.20
45735;DHT22;31446;49.632;8.328;2022-07-29T14:16:21;31.30;70.80
45735;DHT22;31446;49.632;8.328;2022-07-29T14:31:22;31.00;70.60
45735;DHT22;31446;49.632;8.328;2022-07-29T14:46:22;31.40;69.80
45735;DHT22;31446;49.632;8.328;2022-07-29T15:01:23;31.20;66.80
45735;DHT22;31446;49.632;8.328;2022-07-29T15:16:24;31.20;66.20
45735;DHT22;31446;49.632;8.328;2022-07-29T15:31:25;30.50;67.70
45735;DHT22;31446;49.632;8.328;2022-07-29T15:46:26;30.60;69.00
45735;DHT22;31446;49.632;8.328;2022-07-29T16:01:45;30.90;69.30
45735;DHT22;31446;49.632;8.328;2022-07-29T16:16:45;30.90;67.60
45735;DHT22;31446;49.632;8.328;2022-07-29T16:31:46;30.90;66.70
45735;DHT22;31446;49.632;8.328;2022-07-29T16:46:47;30.60;65.90
45735;DHT22;31446;49.632;8.328;2022-07-29T17:16:49;28.50;72.00
45735;DHT22;31446;49.632;8.328;2022-07-29T17:31:49;28.20;73.40
45735;DHT22;31446;49.632;8.328;2022-07-29T17:46:50;27.80;72.80
45735;DHT22;31446;49.632;8.328;2022-07-29T18:01:51;27.40;74.80
45735;DHT22;31446;49.632;8.328;2022-07-29T18:16:52;27.10;78.30
45735;DHT22;31446;49.632;8.328;2022-07-29T18:31:53;26.50;80.50
45735;DHT22;31446;49.632;8.328;2022-07-29T18:46:53;26.00;81.70
45735;DHT22;31446;49.632;8.328;2022-07-29T19:01:55;25.60;83.00
45735;DHT22;31446;49.632;8.328;2022-07-29T19:16:55;25.10;83.40
45735;DHT22;31446;49.632;8.328;2022-07-29T19:31:56;24.50;84.00
45735;DHT22;31446;49.632;8.328;2022-07-29T19:46:58;24.20;85.20
45735;DHT22;31446;49.632;8.328;2022-07-29T20:01:59;23.90;89.00
45735;DHT22;31446;49.632;8.328;2022-07-29T20:17:00;23.20;91.30
45735;DHT22;31446;49.632;8.328;2022-07-29T20:32:01;22.90;92.10
45735;DHT22;31446;49.632;8.328;2022-07-29T20:47:02;22.70;92.90
45735;DHT22;31446;49.632;8.328;2022-07-29T21:02:03;22.30;93.90
45735;DHT22;31446;49.632;8.328;2022-07-29T21:17:03;22.20;94.00
45735;DHT22;31446;49.632;8.328;2022-07-29T21:32:07;22.10;94.30
45735;DHT22;31446;49.632;8.328;2022-07-29T21:47:08;22.00;94.80
45735;DHT22;31446;49.632;8.328;2022-07-29T22:02:09;21.90;95.20
45735;DHT22;31446;49.632;8.328;2022-07-29T22:17:10;22.00;95.40
45735;DHT22;31446;49.632;8.328;2022-07-29T22:32:11;22.00;95.00
45735;DHT22;31446;49.632;8.328;2022-07-29T22:47:11;22.00;94.40
45735;DHT22;31446;49.632;8.328;2022-07-29T23:02:12;22.00;94.30
45735;DHT22;31446;49.632;8.328;2022-07-29T23:17:12;21.30;97.10
45735;DHT22;31446;49.632;8.328;2022-07-29T23:32:13;21.50;96.40
45735;DHT22;31446;49.632;8.328;2022-07-29T23:47:14;21.30;96.90
